sensor_id;sensor_type;location;lat;lon;timestamp;pressure;altitude;pressure_sealevel;temperature;humidity
6389;BME280;3227;42.654;23.360;2023-05-08T00:01:25;94597.25;;;15.52;65.07
6389;BME280;3227;42.654;23.360;2023-05-08T00:03:54;94609.44;;;15.45;65.96
6389;BME280;3227;42.654;23.360;2023-05-08T00:06:21;94588.09;;;15.36;65.52
6389;BME280;3227;42.654;23.360;2023-05-08T00:08:48;94583.94;;;15.26;65.51
6389;BME280;3227;42.654;23.360;2023-05-08T00:11:15;94608.78;;;15.33;65.21
6389;BME280;3227;42.654;23.360;2023-05-08T00:13:43;94612.31;;;15.27;65.80
6389;BME280;3227;42.654;23.360;2023-05-08T00:16:10;94607.06;;;15.33;65.69
6389;BME280;3227;42.654;23.360;2023-05-08T00:18:37;94602.75;;;15.32;65.81
6389;BME280;3227;42.654;23.360;2023-05-08T00:21:04;94612.19;;;15.35;65.95
6389;BME280;3227;42.654;23.360;2023-05-08T00:23:31;94580.72;;;15.14;65.78
6389;BME280;3227;42.654;23.360;2023-05-08T00:25:58;94596.84;;;15.27;65.89
6389;BME280;3227;42.654;23.360;2023-05-08T00:28:25;94565.25;;;15.13;66.77
6389;BME280;3227;42.654;23.360;2023-05-08T00:30:54;94588.28;;;15.23;66.61
6389;BME280;3227;42.654;23.360;2023-05-08T00:33:21;94619.91;;;15.36;66.83
6389;BME280;3227;42.654;23.360;2023-05-08T00:35:47;94622.63;;;15.29;67.78
6389;BME280;3227;42.654;23.360;2023-05-08T00:38:14;94550.25;;;14.84;68.66
6389;BME280;3227;42.654;23.360;2023-05-08T00:40:41;94618.44;;;15.23;68.94
6389;BME280;3227;42.654;23.360;2023-05-08T00:43:08;94614.16;;;15.20;69.18
6389;BME280;3227;42.654;23.360;2023-05-08T00:45:36;94612.56;;;15.15;69.29
6389;BME280;3227;42.654;23.360;2023-05-08T00:48:06;94613.38;;;15.15;68.99
6389;BME280;3227;42.654;23.360;2023-05-08T00:50:33;94619.34;;;15.19;68.63
6389;BME280;3227;42.654;23.360;2023-05-08T00:53:02;94595.53;;;15.02;68.86
6389;BME280;3227;42.654;23.360;2023-05-08T00:55:30;94609.13;;;15.13;68.96
6389;BME280;3227;42.654;23.360;2023-05-08T00:57:58;94610.03;;;15.10;69.17
6389;BME280;3227;42.654;23.360;2023-05-08T01:00:25;94613.44;;;15.12;68.91
6389;BME280;3227;42.654;23.360;2023-05-08T01:02:52;94611.69;;;15.14;68.73
6389;BME280;3227;42.654;23.360;2023-05-08T01:05:20;94597.41;;;14.92;69.98
6389;BME280;3227;42.654;23.360;2023-05-08T01:07:47;94628.31;;;14.97;70.15
6389;BME280;3227;42.654;23.360;2023-05-08T01:10:14;94620.66;;;14.91;70.83
6389;BME280;3227;42.654;23.360;2023-05-08T01:12:55;94578.88;;;14.67;71.40
6389;BME280;3227;42.654;23.360;2023-05-08T01:15:28;94623.28;;;14.89;72.46
6389;BME280;3227;42.654;23.360;2023-05-08T01:18:05;94624.25;;;14.82;72.71
6389;BME280;3227;42.654;23.360;2023-05-08T01:20:44;94626.88;;;14.77;73.16
6389;BME280;3227;42.654;23.360;2023-05-08T01:23:33;94596.19;;;14.58;72.83
6389;BME280;3227;42.654;23.360;2023-05-08T01:32:40;94622.66;;;14.73;73.79
6389;BME280;3227;42.654;23.360;2023-05-08T01:35:13;94614.13;;;14.67;74.63
6389;BME280;3227;42.654;23.360;2023-05-08T01:37:48;94624.41;;;14.71;74.13
6389;BME280;3227;42.654;23.360;2023-05-08T01:40:20;94621.81;;;14.71;74.22
6389;BME280;3227;42.654;23.360;2023-05-08T01:42:58;94615.84;;;14.68;73.91
6389;BME280;3227;42.654;23.360;2023-05-08T01:45:31;94529.91;;;14.04;74.29
6389;BME280;3227;42.654;23.360;2023-05-08T01:48:04;94619.63;;;14.42;74.95
6389;BME280;3227;42.654;23.360;2023-05-08T01:50:35;94612.81;;;14.38;75.47
6389;BME280;3227;42.654;23.360;2023-05-08T01:53:08;94572.03;;;14.02;76.14
6389;BME280;3227;42.654;23.360;2023-05-08T01:55:36;94615.59;;;14.22;76.75
6389;BME280;3227;42.654;23.360;2023-05-08T01:58:08;94605.50;;;14.05;76.96
6389;BME280;3227;42.654;23.360;2023-05-08T02:00:37;94608.84;;;14.08;77.84
6389;BME280;3227;42.654;23.360;2023-05-08T02:03:09;94602.22;;;13.91;78.02
6389;BME280;3227;42.654;23.360;2023-05-08T02:05:37;94612.38;;;14.01;77.94
6389;BME280;3227;42.654;23.360;2023-05-08T02:08:06;94611.59;;;13.96;78.70
6389;BME280;3227;42.654;23.360;2023-05-08T02:10:36;94564.84;;;13.58;78.91
6389;BME280;3227;42.654;23.360;2023-05-08T02:13:03;94617.72;;;13.88;79.40
6389;BME280;3227;42.654;23.360;2023-05-08T02:15:32;94581.00;;;13.70;78.44
6389;BME280;3227;42.654;23.360;2023-05-08T02:18:01;94613.34;;;13.93;78.91
6389;BME280;3227;42.654;23.360;2023-05-08T02:20:31;94617.59;;;13.97;78.98
6389;BME280;3227;42.654;23.360;2023-05-08T02:22:59;94621.88;;;13.99;78.54
6389;BME280;3227;42.654;23.360;2023-05-08T02:25:27;94618.44;;;13.99;78.74
6389;BME280;3227;42.654;23.360;2023-05-08T02:27:56;94616.69;;;14.01;78.74
6389;BME280;3227;42.654;23.360;2023-05-08T02:30:24;94589.44;;;13.83;78.19
6389;BME280;3227;42.654;23.360;2023-05-08T02:32:52;94611.69;;;13.89;79.20
6389;BME280;3227;42.654;23.360;2023-05-08T02:35:22;94616.97;;;13.77;79.39
6389;BME280;3227;42.654;23.360;2023-05-08T02:37:53;94613.59;;;13.73;79.65
6389;BME280;3227;42.654;23.360;2023-05-08T02:40:21;94549.72;;;13.26;80.55
6389;BME280;3227;42.654;23.360;2023-05-08T02:42:50;94621.44;;;13.59;80.84
6389;BME280;3227;42.654;23.360;2023-05-08T02:45:17;94618.84;;;13.62;80.69
6389;BME280;3227;42.654;23.360;2023-05-08T02:47:49;94611.13;;;13.62;80.66
6389;BME280;3227;42.654;23.360;2023-05-08T02:50:21;94618.75;;;13.73;80.08
6389;BME280;3227;42.654;23.360;2023-05-08T02:52:53;94624.69;;;13.77;79.57
6389;BME280;3227;42.654;23.360;2023-05-08T02:55:32;94627.28;;;13.77;79.39
6389;BME280;3227;42.654;23.360;2023-05-08T02:58:12;94626.41;;;13.76;79.97
6389;BME280;3227;42.654;23.360;2023-05-08T03:00:46;94628.19;;;13.73;79.98
6389;BME280;3227;42.654;23.360;2023-05-08T03:03:19;94577.91;;;13.41;80.27
6389;BME280;3227;42.654;23.360;2023-05-08T03:05:50;94629.03;;;13.75;80.05
6389;BME280;3227;42.654;23.360;2023-05-08T03:08:23;94628.97;;;13.78;79.40
6389;BME280;3227;42.654;23.360;2023-05-08T03:10:54;94556.44;;;13.41;80.08
6389;BME280;3227;42.654;23.360;2023-05-08T03:13:22;94625.47;;;13.85;79.44
6389;BME280;3227;42.654;23.360;2023-05-08T03:15:54;94599.81;;;13.76;79.74
6389;BME280;3227;42.654;23.360;2023-05-08T03:18:25;94625.38;;;13.92;80.08
6389;BME280;3227;42.654;23.360;2023-05-08T03:20:55;94593.78;;;13.77;78.87
6389;BME280;3227;42.654;23.360;2023-05-08T03:23:26;94569.72;;;13.79;77.96
6389;BME280;3227;42.654;23.360;2023-05-08T03:25:54;94602.63;;;14.26;77.53
6389;BME280;3227;42.654;23.360;2023-05-08T03:28:23;94643.09;;;14.84;76.02
6389;BME280;3227;42.654;23.360;2023-05-08T03:30:52;94637.41;;;15.20;73.58
6389;BME280;3227;42.654;23.360;2023-05-08T03:33:20;94639.44;;;15.52;72.29
6389;BME280;3227;42.654;23.360;2023-05-08T03:35:49;94647.84;;;15.65;71.20
6389;BME280;3227;42.654;23.360;2023-05-08T03:38:17;94643.38;;;15.73;70.80
6389;BME280;3227;42.654;23.360;2023-05-08T03:40:45;94646.13;;;16.12;69.57
6389;BME280;3227;42.654;23.360;2023-05-08T03:43:14;94644.75;;;16.79;66.69
6389;BME280;3227;42.654;23.360;2023-05-08T03:45:43;94632.00;;;17.43;63.53
6389;BME280;3227;42.654;23.360;2023-05-08T03:48:10;94636.38;;;18.08;60.57
6389;BME280;3227;42.654;23.360;2023-05-08T03:50:39;94581.94;;;18.37;58.25
6389;BME280;3227;42.654;23.360;2023-05-08T03:53:05;94645.94;;;19.25;56.79
6389;BME280;3227;42.654;23.360;2023-05-08T03:55:32;94612.75;;;19.33;55.35
6389;BME280;3227;42.654;23.360;2023-05-08T03:58:04;94651.16;;;20.02;53.66
6389;BME280;3227;42.654;23.360;2023-05-08T04:00:42;94650.25;;;20.53;51.85
6389;BME280;3227;42.654;23.360;2023-05-08T04:03:20;94649.94;;;20.84;50.81
6389;BME280;3227;42.654;23.360;2023-05-08T04:05:51;94656.50;;;20.94;50.11
6389;BME280;3227;42.654;23.360;2023-05-08T04:08:26;94664.47;;;20.91;49.86
6389;BME280;3227;42.654;23.360;2023-05-08T04:10:58;94663.91;;;20.83;49.85
6389;BME280;3227;42.654;23.360;2023-05-08T04:13:35;94663.72;;;20.41;50.75
6389;BME280;3227;42.654;23.360;2023-05-08T04:16:05;94674.66;;;20.26;51.14
6389;BME280;3227;42.654;23.360;2023-05-08T04:18:36;94668.19;;;20.11;51.22
6389;BME280;3227;42.654;23.360;2023-05-08T04:21:07;94669.06;;;20.11;51.34
6389;BME280;3227;42.654;23.360;2023-05-08T04:23:37;94671.28;;;19.97;51.15
6389;BME280;3227;42.654;23.360;2023-05-08T04:26:06;94671.63;;;19.87;50.96
6389;BME280;3227;42.654;23.360;2023-05-08T04:28:35;94665.13;;;19.75;50.65
6389;BME280;3227;42.654;23.360;2023-05-08T04:31:03;94671.47;;;19.66;50.98
6389;BME280;3227;42.654;23.360;2023-05-08T04:33:30;94676.97;;;19.57;50.82
6389;BME280;3227;42.654;23.360;2023-05-08T04:36:00;94672.31;;;19.39;51.51
6389;BME280;3227;42.654;23.360;2023-05-08T04:38:35;94675.94;;;19.35;52.12
6389;BME280;3227;42.654;23.360;2023-05-08T04:41:02;94667.53;;;19.27;53.11
6389;BME280;3227;42.654;23.360;2023-05-08T04:43:55;94665.69;;;19.29;53.42
6389;BME280;3227;42.654;23.360;2023-05-08T04:46:22;94661.88;;;19.41;52.41
6389;BME280;3227;42.654;23.360;2023-05-08T04:48:50;94656.00;;;19.62;52.68
6389;BME280;3227;42.654;23.360;2023-05-08T04:51:17;94653.28;;;19.66;52.23
6389;BME280;3227;42.654;23.360;2023-05-08T04:53:43;94624.25;;;19.52;52.00
6389;BME280;3227;42.654;23.360;2023-05-08T04:56:10;94651.84;;;19.83;51.15
6389;BME280;3227;42.654;23.360;2023-05-08T04:58:37;94649.66;;;19.95;50.91
6389;BME280;3227;42.654;23.360;2023-05-08T05:01:05;94652.59;;;20.11;50.96
6389;BME280;3227;42.654;23.360;2023-05-08T05:03:32;94624.78;;;20.13;50.08
6389;BME280;3227;42.654;23.360;2023-05-08T05:05:59;94644.75;;;20.61;49.60
6389;BME280;3227;42.654;23.360;2023-05-08T05:08:26;94639.06;;;20.74;49.62
6389;BME280;3227;42.654;23.360;2023-05-08T05:10:53;94653.53;;;20.81;48.07
6389;BME280;3227;42.654;23.360;2023-05-08T05:13:20;94648.78;;;20.69;48.42
6389;BME280;3227;42.654;23.360;2023-05-08T05:15:47;94640.63;;;20.55;48.57
6389;BME280;3227;42.654;23.360;2023-05-08T05:18:17;94639.53;;;20.37;49.06
6389;BME280;3227;42.654;23.360;2023-05-08T05:20:43;94646.84;;;20.51;49.77
6389;BME280;3227;42.654;23.360;2023-05-08T05:23:10;94642.81;;;20.89;49.75
6389;BME280;3227;42.654;23.360;2023-05-08T05:25:37;94644.75;;;21.29;49.08
6389;BME280;3227;42.654;23.360;2023-05-08T05:28:04;94641.34;;;21.71;46.87
6389;BME280;3227;42.654;23.360;2023-05-08T05:30:31;94636.97;;;21.91;46.26
6389;BME280;3227;42.654;23.360;2023-05-08T05:32:58;94642.44;;;21.85;45.70
6389;BME280;3227;42.654;23.360;2023-05-08T05:35:26;94644.97;;;21.67;45.57
6389;BME280;3227;42.654;23.360;2023-05-08T05:37:53;94639.53;;;21.51;46.33
6389;BME280;3227;42.654;23.360;2023-05-08T05:40:20;94631.97;;;21.45;47.61
6389;BME280;3227;42.654;23.360;2023-05-08T05:42:54;94641.19;;;21.32;46.89
6389;BME280;3227;42.654;23.360;2023-05-08T05:45:21;94650.50;;;21.15;46.77
6389;BME280;3227;42.654;23.360;2023-05-08T05:47:48;94634.66;;;21.21;47.85
6389;BME280;3227;42.654;23.360;2023-05-08T05:50:44;94645.66;;;21.50;48.70
6389;BME280;3227;42.654;23.360;2023-05-08T05:53:11;94646.38;;;21.95;47.89
6389;BME280;3227;42.654;23.360;2023-05-08T05:55:39;94638.44;;;22.39;45.18
6389;BME280;3227;42.654;23.360;2023-05-08T05:58:06;94637.50;;;22.40;45.49
6389;BME280;3227;42.654;23.360;2023-05-08T06:00:33;94641.63;;;22.25;45.55
6389;BME280;3227;42.654;23.360;2023-05-08T06:03:00;94636.22;;;22.30;45.38
6389;BME280;3227;42.654;23.360;2023-05-08T06:05:27;94625.59;;;22.53;45.63
6389;BME280;3227;42.654;23.360;2023-05-08T06:07:55;94630.31;;;23.03;44.55
6389;BME280;3227;42.654;23.360;2023-05-08T06:10:22;94627.81;;;23.00;43.61
6389;BME280;3227;42.654;23.360;2023-05-08T06:12:49;94611.03;;;22.87;44.42
6389;BME280;3227;42.654;23.360;2023-05-08T06:15:16;94618.31;;;22.80;44.76
6389;BME280;3227;42.654;23.360;2023-05-08T06:17:43;94631.94;;;22.66;44.32
6389;BME280;3227;42.654;23.360;2023-05-08T06:20:10;94572.22;;;22.21;44.77
6389;BME280;3227;42.654;23.360;2023-05-08T06:22:37;94621.34;;;22.51;45.07
6389;BME280;3227;42.654;23.360;2023-05-08T06:25:07;94605.22;;;22.61;45.29
6389;BME280;3227;42.654;23.360;2023-05-08T06:27:34;94610.69;;;22.75;44.34
6389;BME280;3227;42.654;23.360;2023-05-08T06:30:01;94586.22;;;22.19;44.88
6389;BME280;3227;42.654;23.360;2023-05-08T06:32:29;94587.19;;;21.97;45.13
6389;BME280;3227;42.654;23.360;2023-05-08T06:34:56;94625.78;;;22.10;45.45
6389;BME280;3227;42.654;23.360;2023-05-08T06:37:22;94627.97;;;21.78;46.30
6389;BME280;3227;42.654;23.360;2023-05-08T06:39:49;94599.72;;;21.25;47.43
6389;BME280;3227;42.654;23.360;2023-05-08T06:42:17;94626.41;;;21.09;48.44
6389;BME280;3227;42.654;23.360;2023-05-08T06:44:44;94630.22;;;21.00;49.30
6389;BME280;3227;42.654;23.360;2023-05-08T06:47:11;94628.00;;;21.13;49.42
6389;BME280;3227;42.654;23.360;2023-05-08T06:49:38;94629.00;;;21.32;48.85
6389;BME280;3227;42.654;23.360;2023-05-08T06:52:05;94621.78;;;21.39;48.77
6389;BME280;3227;42.654;23.360;2023-05-08T06:54:31;94630.31;;;21.64;48.64
6389;BME280;3227;42.654;23.360;2023-05-08T06:56:58;94629.03;;;21.74;47.64
6389;BME280;3227;42.654;23.360;2023-05-08T06:59:27;94495.59;;;21.01;47.76
6389;BME280;3227;42.654;23.360;2023-05-08T07:01:54;94604.75;;;21.72;47.43
6389;BME280;3227;42.654;23.360;2023-05-08T07:04:21;94631.84;;;21.90;47.63
6389;BME280;3227;42.654;23.360;2023-05-08T07:06:47;94633.38;;;21.94;47.94
6389;BME280;3227;42.654;23.360;2023-05-08T07:09:14;94614.81;;;21.81;47.08
6389;BME280;3227;42.654;23.360;2023-05-08T07:11:41;94634.69;;;21.63;47.44
6389;BME280;3227;42.654;23.360;2023-05-08T07:14:08;94616.31;;;21.45;48.22
6389;BME280;3227;42.654;23.360;2023-05-08T07:16:37;94632.78;;;21.67;48.23
6389;BME280;3227;42.654;23.360;2023-05-08T07:19:03;94640.69;;;21.86;48.60
6389;BME280;3227;42.654;23.360;2023-05-08T07:21:30;94598.38;;;21.79;48.01
6389;BME280;3227;42.654;23.360;2023-05-08T07:23:57;94644.97;;;22.09;45.51
6389;BME280;3227;42.654;23.360;2023-05-08T07:26:24;94635.75;;;21.58;46.42
6389;BME280;3227;42.654;23.360;2023-05-08T07:28:51;94626.34;;;21.10;48.02
6389;BME280;3227;42.654;23.360;2023-05-08T07:31:18;94631.16;;;20.76;48.73
6389;BME280;3227;42.654;23.360;2023-05-08T07:33:46;94630.50;;;20.23;50.27
6389;BME280;3227;42.654;23.360;2023-05-08T07:36:15;94636.25;;;20.32;51.05
6389;BME280;3227;42.654;23.360;2023-05-08T07:38:42;94646.34;;;20.41;51.85
6389;BME280;3227;42.654;23.360;2023-05-08T07:41:09;94638.97;;;20.52;51.73
6389;BME280;3227;42.654;23.360;2023-05-08T07:43:35;94631.06;;;20.56;50.99
6389;BME280;3227;42.654;23.360;2023-05-08T07:46:02;94636.25;;;20.79;50.85
6389;BME280;3227;42.654;23.360;2023-05-08T07:48:29;94614.19;;;20.89;50.06
6389;BME280;3227;42.654;23.360;2023-05-08T07:50:58;94631.06;;;21.01;49.14
6389;BME280;3227;42.654;23.360;2023-05-08T07:53:24;94641.97;;;20.88;49.09
6389;BME280;3227;42.654;23.360;2023-05-08T07:55:51;94638.88;;;20.79;50.06
6389;BME280;3227;42.654;23.360;2023-05-08T07:58:18;94636.28;;;21.01;50.78
6389;BME280;3227;42.654;23.360;2023-05-08T08:00:45;94637.69;;;21.33;49.49
6389;BME280;3227;42.654;23.360;2023-05-08T08:03:12;94647.34;;;21.51;47.41
6389;BME280;3227;42.654;23.360;2023-05-08T08:05:39;94636.38;;;21.43;47.45
6389;BME280;3227;42.654;23.360;2023-05-08T08:08:08;94651.47;;;21.35;47.87
6389;BME280;3227;42.654;23.360;2023-05-08T08:10:35;94651.53;;;20.88;48.22
6389;BME280;3227;42.654;23.360;2023-05-08T08:13:02;94620.19;;;20.68;49.79
6389;BME280;3227;42.654;23.360;2023-05-08T08:15:29;94638.94;;;21.22;49.24
6389;BME280;3227;42.654;23.360;2023-05-08T08:17:57;94645.56;;;21.31;48.14
6389;BME280;3227;42.654;23.360;2023-05-08T08:20:23;94646.16;;;21.38;49.26
6389;BME280;3227;42.654;23.360;2023-05-08T08:22:50;94633.03;;;21.61;48.93
6389;BME280;3227;42.654;23.360;2023-05-08T08:25:20;94631.94;;;21.87;49.02
6389;BME280;3227;42.654;23.360;2023-05-08T08:27:47;94621.75;;;22.23;48.87
6389;BME280;3227;42.654;23.360;2023-05-08T08:30:14;94637.59;;;22.57;47.33
6389;BME280;3227;42.654;23.360;2023-05-08T08:32:41;94620.59;;;22.67;45.79
6389;BME280;3227;42.654;23.360;2023-05-08T08:35:08;94632.59;;;22.71;46.91
6389;BME280;3227;42.654;23.360;2023-05-08T08:37:35;94616.78;;;22.56;47.00
6389;BME280;3227;42.654;23.360;2023-05-08T08:40:12;94623.38;;;22.64;47.61
6389;BME280;3227;42.654;23.360;2023-05-08T08:42:41;94621.78;;;22.60;46.88
6389;BME280;3227;42.654;23.360;2023-05-08T08:45:08;94615.03;;;22.56;46.96
6389;BME280;3227;42.654;23.360;2023-05-08T08:47:36;94618.34;;;22.60;47.55
6389;BME280;3227;42.654;23.360;2023-05-08T08:50:07;94619.81;;;22.47;47.45
6389;BME280;3227;42.654;23.360;2023-05-08T08:52:38;94615.13;;;22.34;48.38
6389;BME280;3227;42.654;23.360;2023-05-08T08:55:09;94612.97;;;22.24;48.77
6389;BME280;3227;42.654;23.360;2023-05-08T08:57:46;94609.84;;;22.16;50.06
6389;BME280;3227;42.654;23.360;2023-05-08T09:00:20;94607.34;;;22.14;50.87
6389;BME280;3227;42.654;23.360;2023-05-08T09:02:48;94600.13;;;22.19;50.02
6389;BME280;3227;42.654;23.360;2023-05-08T09:05:15;94599.84;;;22.07;49.50
6389;BME280;3227;42.654;23.360;2023-05-08T09:07:43;94599.47;;;21.94;49.80
6389;BME280;3227;42.654;23.360;2023-05-08T09:10:10;94584.81;;;21.71;50.22
6389;BME280;3227;42.654;23.360;2023-05-08T09:12:40;94558.38;;;21.38;50.72
6389;BME280;3227;42.654;23.360;2023-05-08T09:15:09;94582.81;;;21.36;51.91
6389;BME280;3227;42.654;23.360;2023-05-08T09:17:36;94567.41;;;21.08;52.54
6389;BME280;3227;42.654;23.360;2023-05-08T09:20:04;94576.25;;;20.82;53.85
6389;BME280;3227;42.654;23.360;2023-05-08T09:22:34;94582.53;;;20.76;54.67
6389;BME280;3227;42.654;23.360;2023-05-08T09:25:02;94571.66;;;20.67;54.58
6389;BME280;3227;42.654;23.360;2023-05-08T09:27:31;94564.50;;;20.72;54.97
6389;BME280;3227;42.654;23.360;2023-05-08T09:30:02;94565.91;;;20.80;54.63
6389;BME280;3227;42.654;23.360;2023-05-08T09:32:31;94552.75;;;20.83;54.26
6389;BME280;3227;42.654;23.360;2023-05-08T09:34:59;94553.41;;;20.67;55.01
6389;BME280;3227;42.654;23.360;2023-05-08T09:37:27;94554.78;;;20.54;54.72
6389;BME280;3227;42.654;23.360;2023-05-08T09:40:12;94560.69;;;20.59;54.97
6389;BME280;3227;42.654;23.360;2023-05-08T09:42:39;94569.50;;;20.55;55.86
6389;BME280;3227;42.654;23.360;2023-05-08T09:45:07;94561.56;;;20.34;55.56
6389;BME280;3227;42.654;23.360;2023-05-08T09:47:36;94571.38;;;20.26;56.52
6389;BME280;3227;42.654;23.360;2023-05-08T09:50:06;94573.47;;;20.41;55.71
6389;BME280;3227;42.654;23.360;2023-05-08T09:52:34;94582.47;;;20.56;55.86
6389;BME280;3227;42.654;23.360;2023-05-08T09:55:02;94584.44;;;20.49;56.00
6389;BME280;3227;42.654;23.360;2023-05-08T09:57:30;94568.38;;;20.38;56.88
6389;BME280;3227;42.654;23.360;2023-05-08T10:00:01;94570.28;;;20.33;57.13
6389;BME280;3227;42.654;23.360;2023-05-08T10:02:30;94576.78;;;20.45;57.96
6389;BME280;3227;42.654;23.360;2023-05-08T10:04:59;94573.41;;;20.66;58.48
6389;BME280;3227;42.654;23.360;2023-05-08T10:07:32;94542.88;;;20.70;56.54
6389;BME280;3227;42.654;23.360;2023-05-08T10:10:02;94564.63;;;21.12;56.07
6389;BME280;3227;42.654;23.360;2023-05-08T10:12:29;94562.59;;;21.20;55.58
6389;BME280;3227;42.654;23.360;2023-05-08T10:14:57;94560.56;;;21.49;55.17
6389;BME280;3227;42.654;23.360;2023-05-08T10:17:25;94559.56;;;21.72;55.23
6389;BME280;3227;42.654;23.360;2023-05-08T10:19:58;94558.56;;;21.94;53.62
6389;BME280;3227;42.654;23.360;2023-05-08T10:22:27;94557.94;;;21.89;52.76
6389;BME280;3227;42.654;23.360;2023-05-08T10:24:56;94555.72;;;21.80;54.17
6389;BME280;3227;42.654;23.360;2023-05-08T10:27:32;94531.47;;;21.78;53.90
6389;BME280;3227;42.654;23.360;2023-05-08T10:30:01;94551.00;;;22.09;53.79
6389;BME280;3227;42.654;23.360;2023-05-08T10:32:37;94542.66;;;22.21;54.19
6389;BME280;3227;42.654;23.360;2023-05-08T10:35:08;94537.34;;;22.41;53.21
6389;BME280;3227;42.654;23.360;2023-05-08T10:37:36;94535.66;;;22.59;52.38
6389;BME280;3227;42.654;23.360;2023-05-08T10:40:06;94543.16;;;22.66;52.18
6389;BME280;3227;42.654;23.360;2023-05-08T10:42:33;94543.16;;;22.66;51.25
6389;BME280;3227;42.654;23.360;2023-05-08T10:45:01;94538.72;;;22.68;51.91
6389;BME280;3227;42.654;23.360;2023-05-08T10:47:41;94542.63;;;22.79;51.47
6389;BME280;3227;42.654;23.360;2023-05-08T10:50:21;94532.09;;;22.80;51.76
6389;BME280;3227;42.654;23.360;2023-05-08T10:52:56;94526.94;;;22.79;52.76
6389;BME280;3227;42.654;23.360;2023-05-08T10:55:29;94491.16;;;22.43;51.63
6389;BME280;3227;42.654;23.360;2023-05-08T10:58:10;94523.75;;;22.53;52.34
6389;BME280;3227;42.654;23.360;2023-05-08T11:01:11;94522.84;;;22.35;52.88
6389;BME280;3227;42.654;23.360;2023-05-08T11:03:40;94483.38;;;21.84;52.99
6389;BME280;3227;42.654;23.360;2023-05-08T11:06:09;94514.00;;;21.80;54.10
6389;BME280;3227;42.654;23.360;2023-05-08T11:08:47;94487.56;;;21.49;55.08
6389;BME280;3227;42.654;23.360;2023-05-08T11:11:26;94502.91;;;21.55;55.64
6389;BME280;3227;42.654;23.360;2023-05-08T11:13:58;94510.69;;;21.56;55.87
6389;BME280;3227;42.654;23.360;2023-05-08T11:19:37;94485.53;;;21.13;55.79
6389;BME280;3227;42.654;23.360;2023-05-08T11:22:24;94456.78;;;20.95;55.60
6389;BME280;3227;42.654;23.360;2023-05-08T11:24:58;94493.19;;;21.18;56.36
6389;BME280;3227;42.654;23.360;2023-05-08T11:27:33;94493.81;;;21.24;57.19
6389;BME280;3227;42.654;23.360;2023-05-08T11:30:21;94486.50;;;21.33;56.86
6389;BME280;3227;42.654;23.360;2023-05-08T11:35:51;94475.22;;;21.52;55.54
6389;BME280;3227;42.654;23.360;2023-05-08T11:38:24;94475.88;;;21.57;55.76
6389;BME280;3227;42.654;23.360;2023-05-08T11:40:57;94454.94;;;21.59;55.06
6389;BME280;3227;42.654;23.360;2023-05-08T11:43:25;94470.44;;;21.82;54.47
6389;BME280;3227;42.654;23.360;2023-05-08T11:45:53;94405.38;;;21.40;54.60
6389;BME280;3227;42.654;23.360;2023-05-08T11:48:20;94425.00;;;21.68;54.06
6389;BME280;3227;42.654;23.360;2023-05-08T11:50:47;94444.44;;;21.99;54.94
6389;BME280;3227;42.654;23.360;2023-05-08T11:53:16;94442.41;;;22.25;54.63
6389;BME280;3227;42.654;23.360;2023-05-08T11:55:46;94444.16;;;22.43;53.58
6389;BME280;3227;42.654;23.360;2023-05-08T11:58:13;94386.34;;;22.15;53.22
6389;BME280;3227;42.654;23.360;2023-05-08T12:00:40;94422.34;;;22.44;52.97
6389;BME280;3227;42.654;23.360;2023-05-08T12:03:11;94423.97;;;22.47;52.55
6389;BME280;3227;42.654;23.360;2023-05-08T12:05:38;94426.84;;;22.59;51.82
6389;BME280;3227;42.654;23.360;2023-05-08T12:08:06;94363.66;;;22.34;50.38
6389;BME280;3227;42.654;23.360;2023-05-08T12:10:38;94418.22;;;22.76;50.30
6389;BME280;3227;42.654;23.360;2023-05-08T12:13:16;94429.84;;;22.88;49.98
6389;BME280;3227;42.654;23.360;2023-05-08T12:15:44;94418.59;;;22.86;50.09
6389;BME280;3227;42.654;23.360;2023-05-08T12:18:11;94425.22;;;22.93;50.36
6389;BME280;3227;42.654;23.360;2023-05-08T12:20:38;94385.41;;;22.88;49.36
6389;BME280;3227;42.654;23.360;2023-05-08T12:23:05;94414.91;;;23.24;50.15
6389;BME280;3227;42.654;23.360;2023-05-08T12:25:33;94340.31;;;22.84;48.27
6389;BME280;3227;42.654;23.360;2023-05-08T12:27:59;94401.78;;;23.26;46.69
6389;BME280;3227;42.654;23.360;2023-05-08T12:30:28;94410.47;;;23.26;47.53
6389;BME280;3227;42.654;23.360;2023-05-08T12:32:55;94392.41;;;23.04;47.70
6389;BME280;3227;42.654;23.360;2023-05-08T12:35:22;94410.16;;;23.15;47.62
6389;BME280;3227;42.654;23.360;2023-05-08T12:37:49;94380.59;;;22.97;47.83
6389;BME280;3227;42.654;23.360;2023-05-08T12:40:24;94388.97;;;23.04;48.42
6389;BME280;3227;42.654;23.360;2023-05-08T12:42:51;94406.78;;;23.13;47.58
6389;BME280;3227;42.654;23.360;2023-05-08T12:45:19;94396.16;;;22.99;47.80
6389;BME280;3227;42.654;23.360;2023-05-08T12:47:48;94406.78;;;23.13;48.07
6389;BME280;3227;42.654;23.360;2023-05-08T12:50:16;94391.94;;;23.13;47.50
6389;BME280;3227;42.654;23.360;2023-05-08T12:52:46;94392.63;;;23.17;46.49
6389;BME280;3227;42.654;23.360;2023-05-08T12:55:20;94403.84;;;23.19;46.55
6389;BME280;3227;42.654;23.360;2023-05-08T12:57:48;94398.84;;;23.14;47.74
6389;BME280;3227;42.654;23.360;2023-05-08T13:00:17;94400.72;;;23.12;47.22
6389;BME280;3227;42.654;23.360;2023-05-08T13:02:54;94386.16;;;23.07;47.51
6389;BME280;3227;42.654;23.360;2023-05-08T13:05:22;94377.41;;;22.91;47.90
6389;BME280;3227;42.654;23.360;2023-05-08T13:07:49;94360.66;;;22.77;47.94
6389;BME280;3227;42.654;23.360;2023-05-08T13:10:17;94296.50;;;22.37;48.04
6389;BME280;3227;42.654;23.360;2023-05-08T13:12:44;94364.34;;;22.91;47.92
6389;BME280;3227;42.654;23.360;2023-05-08T13:15:11;94419.78;;;22.07;54.10
6389;BME280;3227;42.654;23.360;2023-05-08T13:17:38;94420.16;;;20.99;59.61
6389;BME280;3227;42.654;23.360;2023-05-08T13:20:07;94427.34;;;20.72;61.64
6389;BME280;3227;42.654;23.360;2023-05-08T13:22:35;94429.25;;;20.24;63.90
6389;BME280;3227;42.654;23.360;2023-05-08T13:25:02;94427.47;;;20.02;64.67
6389;BME280;3227;42.654;23.360;2023-05-08T13:27:29;94369.94;;;19.66;64.65
6389;BME280;3227;42.654;23.360;2023-05-08T13:29:56;94354.50;;;19.37;64.99
6389;BME280;3227;42.654;23.360;2023-05-08T13:32:23;94408.22;;;19.61;65.51
6389;BME280;3227;42.654;23.360;2023-05-08T13:34:49;94406.41;;;19.63;65.57